Terminal Aerodrome Forecast
Issued by NWS Louisville, KY

Home | Current Version | Previous Version | Text Only | Print | Product List | Glossary On
Versions: 1 2 3 4 5 6 7 8 9 10 11 12 13 14 15 16 17
924
FTUS43 KLMK 150520
TAFBWG
TAF
KBWG 150520Z 1506/1606 VRB04KT P6SM OVC040
     FM151600 22012G22KT P6SM VCSH BKN060
     FM152000 25012G20KT 4SM -RASN OVC040
     FM160000 28008KT 5SM -SN BR OVC015=

USA.gov is the U.S. government's official web portal to all federal, state and local government web resources and services.